sensor_id;sensor_type;location;lat;lon;timestamp;pressure;altitude;pressure_sealevel;temperature;humidity
33625;BME280;19962;47.820;1.930;2023-09-07T00:00:14;100408.81;;;24.78;61.51
33625;BME280;19962;47.820;1.930;2023-09-07T00:02:40;100400.03;;;24.62;61.71
33625;BME280;19962;47.820;1.930;2023-09-07T00:05:07;100405.91;;;24.52;62.04
33625;BME280;19962;47.820;1.930;2023-09-07T00:07:34;100406.38;;;24.45;62.39
33625;BME280;19962;47.820;1.930;2023-09-07T00:10:01;100403.09;;;24.52;61.97
33625;BME280;19962;47.820;1.930;2023-09-07T00:12:27;100396.31;;;24.44;62.20
33625;BME280;19962;47.820;1.930;2023-09-07T00:14:54;100398.78;;;24.38;62.61
33625;BME280;19962;47.820;1.930;2023-09-07T00:17:21;100394.13;;;24.33;62.97
33625;BME280;19962;47.820;1.930;2023-09-07T00:22:23;100400.28;;;24.43;62.72
33625;BME280;19962;47.820;1.930;2023-09-07T00:24:51;100399.13;;;24.44;62.30
33625;BME280;19962;47.820;1.930;2023-09-07T00:27:17;100398.78;;;24.46;62.25
33625;BME280;19962;47.820;1.930;2023-09-07T00:29:44;100396.63;;;24.43;62.21
33625;BME280;19962;47.820;1.930;2023-09-07T00:32:10;100401.91;;;24.44;62.33
33625;BME280;19962;47.820;1.930;2023-09-07T00:34:36;100393.50;;;24.44;62.27
33625;BME280;19962;47.820;1.930;2023-09-07T00:37:02;100392.00;;;24.38;62.26
33625;BME280;19962;47.820;1.930;2023-09-07T00:39:28;100398.41;;;24.22;62.77
33625;BME280;19962;47.820;1.930;2023-09-07T00:41:54;100393.28;;;24.24;62.53
33625;BME280;19962;47.820;1.930;2023-09-07T00:44:21;100399.72;;;24.24;62.57
33625;BME280;19962;47.820;1.930;2023-09-07T00:46:47;100399.41;;;24.26;62.58
33625;BME280;19962;47.820;1.930;2023-09-07T00:49:14;100407.13;;;24.20;62.79
33625;BME280;19962;47.820;1.930;2023-09-07T00:51:40;100407.13;;;24.20;62.87
33625;BME280;19962;47.820;1.930;2023-09-07T00:54:06;100404.31;;;24.20;62.64
33625;BME280;19962;47.820;1.930;2023-09-07T00:56:33;100403.31;;;24.16;62.75
33625;BME280;19962;47.820;1.930;2023-09-07T00:59:01;100408.53;;;24.09;63.03
33625;BME280;19962;47.820;1.930;2023-09-07T01:01:29;100396.31;;;24.05;63.15
33625;BME280;19962;47.820;1.930;2023-09-07T01:03:56;100404.41;;;24.07;63.31
33625;BME280;19962;47.820;1.930;2023-09-07T01:06:37;100399.81;;;24.11;63.64
33625;BME280;19962;47.820;1.930;2023-09-07T01:09:10;100395.19;;;24.06;63.30
33625;BME280;19962;47.820;1.930;2023-09-07T01:11:39;100397.34;;;23.87;63.42
33625;BME280;19962;47.820;1.930;2023-09-07T01:14:05;100383.13;;;23.75;63.70
33625;BME280;19962;47.820;1.930;2023-09-07T01:16:32;100388.63;;;23.58;64.38
33625;BME280;19962;47.820;1.930;2023-09-07T01:19:08;100384.66;;;23.59;64.42
33625;BME280;19962;47.820;1.930;2023-09-07T01:21:36;100394.13;;;23.72;64.39
33625;BME280;19962;47.820;1.930;2023-09-07T01:24:10;100392.78;;;23.69;64.19
33625;BME280;19962;47.820;1.930;2023-09-07T01:26:37;100389.50;;;23.67;64.07
33625;BME280;19962;47.820;1.930;2023-09-07T01:29:06;100388.41;;;23.77;63.92
33625;BME280;19962;47.820;1.930;2023-09-07T01:31:37;100396.69;;;23.82;63.86
33625;BME280;19962;47.820;1.930;2023-09-07T01:34:04;100392.56;;;23.79;63.57
33625;BME280;19962;47.820;1.930;2023-09-07T01:36:30;100391.69;;;23.70;64.19
33625;BME280;19962;47.820;1.930;2023-09-07T01:38:56;100388.00;;;23.61;64.49
33625;BME280;19962;47.820;1.930;2023-09-07T01:41:23;100387.19;;;23.69;64.55
33625;BME280;19962;47.820;1.930;2023-09-07T01:43:49;100384.22;;;23.66;64.56
33625;BME280;19962;47.820;1.930;2023-09-07T01:46:15;100383.38;;;23.65;64.70
33625;BME280;19962;47.820;1.930;2023-09-07T01:48:41;100387.53;;;23.68;64.56
33625;BME280;19962;47.820;1.930;2023-09-07T01:51:08;100380.13;;;23.72;64.29
33625;BME280;19962;47.820;1.930;2023-09-07T01:53:34;100383.72;;;23.64;64.60
33625;BME280;19962;47.820;1.930;2023-09-07T01:56:00;100384.19;;;23.57;64.74
33625;BME280;19962;47.820;1.930;2023-09-07T01:58:26;100379.78;;;23.65;64.60
33625;BME280;19962;47.820;1.930;2023-09-07T02:00:56;100383.38;;;23.65;64.59
33625;BME280;19962;47.820;1.930;2023-09-07T02:03:23;100388.06;;;23.48;65.22
33625;BME280;19962;47.820;1.930;2023-09-07T02:05:49;100389.38;;;23.50;65.06
33625;BME280;19962;47.820;1.930;2023-09-07T02:08:15;100378.91;;;23.56;64.83
33625;BME280;19962;47.820;1.930;2023-09-07T02:10:41;100381.97;;;23.46;65.35
33625;BME280;19962;47.820;1.930;2023-09-07T02:13:07;100382.59;;;23.43;65.26
33625;BME280;19962;47.820;1.930;2023-09-07T02:15:36;100381.63;;;23.47;65.02
33625;BME280;19962;47.820;1.930;2023-09-07T02:18:02;100380.50;;;23.48;64.93
33625;BME280;19962;47.820;1.930;2023-09-07T02:20:30;100373.22;;;23.47;64.92
33625;BME280;19962;47.820;1.930;2023-09-07T02:22:56;100382.78;;;23.46;64.92
33625;BME280;19962;47.820;1.930;2023-09-07T02:25:22;100390.16;;;23.42;64.78
33625;BME280;19962;47.820;1.930;2023-09-07T02:27:48;100386.16;;;23.35;65.12
33625;BME280;19962;47.820;1.930;2023-09-07T02:30:15;100390.09;;;23.34;65.14
33625;BME280;19962;47.820;1.930;2023-09-07T02:32:43;100388.25;;;23.29;65.44
33625;BME280;19962;47.820;1.930;2023-09-07T02:35:09;100389.53;;;23.23;65.20
33625;BME280;19962;47.820;1.930;2023-09-07T02:37:38;100384.09;;;23.27;65.27
33625;BME280;19962;47.820;1.930;2023-09-07T02:40:05;100389.34;;;23.20;65.34
33625;BME280;19962;47.820;1.930;2023-09-07T02:42:34;100384.34;;;23.17;65.39
33625;BME280;19962;47.820;1.930;2023-09-07T02:45:00;100393.28;;;23.19;65.33
33625;BME280;19962;47.820;1.930;2023-09-07T02:47:26;100390.16;;;23.20;65.31
33625;BME280;19962;47.820;1.930;2023-09-07T02:49:53;100385.94;;;23.09;65.78
33625;BME280;19962;47.820;1.930;2023-09-07T02:52:19;100380.41;;;22.82;66.74
33625;BME280;19962;47.820;1.930;2023-09-07T02:54:45;100383.72;;;22.84;66.68
33625;BME280;19962;47.820;1.930;2023-09-07T02:57:11;100378.00;;;22.89;66.62
33625;BME280;19962;47.820;1.930;2023-09-07T02:59:38;100384.69;;;22.80;66.91
33625;BME280;19962;47.820;1.930;2023-09-07T03:02:04;100380.13;;;22.70;67.41
33625;BME280;19962;47.820;1.930;2023-09-07T03:04:30;100384.25;;;22.86;66.74
33625;BME280;19962;47.820;1.930;2023-09-07T03:06:56;100379.88;;;22.80;67.05
33625;BME280;19962;47.820;1.930;2023-09-07T03:09:22;100375.72;;;22.91;66.72
33625;BME280;19962;47.820;1.930;2023-09-07T03:11:48;100378.00;;;22.89;66.84
33625;BME280;19962;47.820;1.930;2023-09-07T03:14:15;100375.72;;;22.91;66.92
33625;BME280;19962;47.820;1.930;2023-09-07T03:16:41;100376.22;;;22.93;66.74
33625;BME280;19962;47.820;1.930;2023-09-07T03:19:07;100371.97;;;22.96;66.25
33625;BME280;19962;47.820;1.930;2023-09-07T03:21:33;100367.22;;;22.96;66.29
33625;BME280;19962;47.820;1.930;2023-09-07T03:23:59;100374.44;;;22.97;66.28
33625;BME280;19962;47.820;1.930;2023-09-07T03:26:25;100377.38;;;22.92;66.38
33625;BME280;19962;47.820;1.930;2023-09-07T03:28:51;100377.50;;;22.87;66.72
33625;BME280;19962;47.820;1.930;2023-09-07T03:31:20;100374.06;;;22.90;66.55
33625;BME280;19962;47.820;1.930;2023-09-07T03:33:46;100378.00;;;22.89;66.50
33625;BME280;19962;47.820;1.930;2023-09-07T03:36:12;100383.94;;;22.88;66.56
33625;BME280;19962;47.820;1.930;2023-09-07T03:38:42;100375.75;;;22.78;66.91
33625;BME280;19962;47.820;1.930;2023-09-07T03:41:09;100382.84;;;22.48;68.04
33625;BME280;19962;47.820;1.930;2023-09-07T03:43:35;100372.69;;;22.52;68.14
33625;BME280;19962;47.820;1.930;2023-09-07T03:46:01;100378.59;;;22.37;68.84
33625;BME280;19962;47.820;1.930;2023-09-07T03:48:27;100379.03;;;22.31;69.18
33625;BME280;19962;47.820;1.930;2023-09-07T03:50:53;100383.56;;;22.27;69.45
33625;BME280;19962;47.820;1.930;2023-09-07T03:53:20;100389.09;;;22.45;68.82
33625;BME280;19962;47.820;1.930;2023-09-07T03:55:46;100383.56;;;22.40;69.31
33625;BME280;19962;47.820;1.930;2023-09-07T03:58:12;100378.91;;;22.36;69.55
33625;BME280;19962;47.820;1.930;2023-09-07T04:00:42;100383.50;;;22.45;69.17
33625;BME280;19962;47.820;1.930;2023-09-07T04:03:08;100389.09;;;22.45;69.02
33625;BME280;19962;47.820;1.930;2023-09-07T04:05:37;100392.47;;;22.56;68.73
33625;BME280;19962;47.820;1.930;2023-09-07T04:08:04;100379.53;;;22.60;68.33
33625;BME280;19962;47.820;1.930;2023-09-07T04:10:30;100386.16;;;22.64;68.03
33625;BME280;19962;47.820;1.930;2023-09-07T04:12:56;100391.44;;;22.65;68.06
33625;BME280;19962;47.820;1.930;2023-09-07T04:15:22;100394.31;;;22.74;67.71
33625;BME280;19962;47.820;1.930;2023-09-07T04:17:50;100393.19;;;22.75;67.70
33625;BME280;19962;47.820;1.930;2023-09-07T04:20:16;100390.81;;;22.68;67.68
33625;BME280;19962;47.820;1.930;2023-09-07T04:22:43;100396.41;;;22.68;67.67
33625;BME280;19962;47.820;1.930;2023-09-07T04:25:09;100399.81;;;22.65;67.62
33625;BME280;19962;47.820;1.930;2023-09-07T04:27:35;100402.13;;;22.63;67.66
33625;BME280;19962;47.820;1.930;2023-09-07T04:30:01;100400.97;;;22.64;67.34
33625;BME280;19962;47.820;1.930;2023-09-07T04:32:27;100405.41;;;22.65;67.51
33625;BME280;19962;47.820;1.930;2023-09-07T04:34:57;100408.94;;;22.57;67.44
33625;BME280;19962;47.820;1.930;2023-09-07T04:37:25;100404.31;;;22.53;67.61
33625;BME280;19962;47.820;1.930;2023-09-07T04:39:52;100409.75;;;22.44;67.98
33625;BME280;19962;47.820;1.930;2023-09-07T04:42:21;100405.22;;;22.48;67.77
33625;BME280;19962;47.820;1.930;2023-09-07T04:44:48;100417.44;;;22.52;67.54
33625;BME280;19962;47.820;1.930;2023-09-07T04:47:14;100423.22;;;22.42;67.59
33625;BME280;19962;47.820;1.930;2023-09-07T04:49:41;100412.25;;;22.46;67.42
33625;BME280;19962;47.820;1.930;2023-09-07T04:52:07;100411.97;;;22.47;67.40
33625;BME280;19962;47.820;1.930;2023-09-07T04:54:35;100411.50;;;22.40;67.61
33625;BME280;19962;47.820;1.930;2023-09-07T04:57:01;100414.28;;;22.40;67.53
33625;BME280;19962;47.820;1.930;2023-09-07T04:59:27;100408.50;;;22.37;67.41
33625;BME280;19962;47.820;1.930;2023-09-07T05:01:54;100403.75;;;22.37;67.43
33625;BME280;19962;47.820;1.930;2023-09-07T05:04:20;100414.41;;;22.35;67.37
33625;BME280;19962;47.820;1.930;2023-09-07T05:06:46;100418.03;;;22.36;67.07
33625;BME280;19962;47.820;1.930;2023-09-07T05:09:12;100426.13;;;22.37;66.93
33625;BME280;19962;47.820;1.930;2023-09-07T05:11:38;100422.41;;;22.28;67.19
33625;BME280;19962;47.820;1.930;2023-09-07T05:14:04;100416.56;;;21.98;68.06
33625;BME280;19962;47.820;1.930;2023-09-07T05:16:30;100422.97;;;22.12;67.93
33625;BME280;19962;47.820;1.930;2023-09-07T05:18:56;100426.41;;;22.22;67.50
33625;BME280;19962;47.820;1.930;2023-09-07T05:21:22;100430.34;;;22.21;67.51
33625;BME280;19962;47.820;1.930;2023-09-07T05:23:48;100428.59;;;22.25;67.26
33625;BME280;19962;47.820;1.930;2023-09-07T05:26:14;100432.44;;;22.29;66.95
33625;BME280;19962;47.820;1.930;2023-09-07T05:28:46;100436.38;;;22.28;67.10
33625;BME280;19962;47.820;1.930;2023-09-07T05:31:12;100441.97;;;22.28;67.04
33625;BME280;19962;47.820;1.930;2023-09-07T05:33:38;100437.59;;;22.22;67.04
33625;BME280;19962;47.820;1.930;2023-09-07T05:36:04;100447.66;;;22.23;67.19
33625;BME280;19962;47.820;1.930;2023-09-07T05:38:30;100439.56;;;22.22;67.03
33625;BME280;19962;47.820;1.930;2023-09-07T05:40:56;100444.53;;;22.11;67.21
33625;BME280;19962;47.820;1.930;2023-09-07T05:43:22;100445.97;;;22.09;67.46
33625;BME280;19962;47.820;1.930;2023-09-07T05:45:49;100456.31;;;22.08;67.53
33625;BME280;19962;47.820;1.930;2023-09-07T05:48:15;100456.50;;;22.12;67.53
33625;BME280;19962;47.820;1.930;2023-09-07T05:50:44;100455.16;;;22.09;67.55
33625;BME280;19962;47.820;1.930;2023-09-07T05:53:10;100451.75;;;22.12;67.17
33625;BME280;19962;47.820;1.930;2023-09-07T05:55:37;100459.84;;;22.14;66.93
33625;BME280;19962;47.820;1.930;2023-09-07T05:58:07;100453.31;;;22.05;67.14
33625;BME280;19962;47.820;1.930;2023-09-07T06:00:35;100455.91;;;22.01;67.57
33625;BME280;19962;47.820;1.930;2023-09-07T06:03:01;100465.31;;;22.05;67.46
33625;BME280;19962;47.820;1.930;2023-09-07T06:05:29;100462.22;;;22.20;66.64
33625;BME280;19962;47.820;1.930;2023-09-07T06:07:55;100466.06;;;22.24;66.60
33625;BME280;19962;47.820;1.930;2023-09-07T06:10:21;100468.34;;;22.22;66.93
33625;BME280;19962;47.820;1.930;2023-09-07T06:12:47;100467.22;;;22.23;66.96
33625;BME280;19962;47.820;1.930;2023-09-07T06:15:13;100460.47;;;22.24;66.86
33625;BME280;19962;47.820;1.930;2023-09-07T06:17:39;100462.44;;;22.24;67.08
33625;BME280;19962;47.820;1.930;2023-09-07T06:20:06;100461.09;;;22.21;67.13
33625;BME280;19962;47.820;1.930;2023-09-07T06:22:32;100461.81;;;22.27;66.84
33625;BME280;19962;47.820;1.930;2023-09-07T06:24:58;100470.41;;;22.30;66.94
33625;BME280;19962;47.820;1.930;2023-09-07T06:27:24;100472.50;;;22.38;66.93
33625;BME280;19962;47.820;1.930;2023-09-07T06:29:51;100472.00;;;22.36;67.01
33625;BME280;19962;47.820;1.930;2023-09-07T06:32:17;100463.16;;;22.43;66.65
33625;BME280;19962;47.820;1.930;2023-09-07T06:34:43;100465.66;;;22.44;66.78
33625;BME280;19962;47.820;1.930;2023-09-07T06:37:11;100469.22;;;22.50;66.75
33625;BME280;19962;47.820;1.930;2023-09-07T06:39:37;100473.22;;;22.44;67.03
33625;BME280;19962;47.820;1.930;2023-09-07T06:42:03;100467.09;;;22.42;67.33
33625;BME280;19962;47.820;1.930;2023-09-07T06:44:29;100471.88;;;22.41;67.34
33625;BME280;19962;47.820;1.930;2023-09-07T06:46:56;100466.22;;;22.46;67.20
33625;BME280;19962;47.820;1.930;2023-09-07T06:49:22;100469.53;;;22.48;67.24
33625;BME280;19962;47.820;1.930;2023-09-07T06:51:48;100467.16;;;22.55;67.05
33625;BME280;19962;47.820;1.930;2023-09-07T06:54:14;100477.09;;;22.61;66.73
33625;BME280;19962;47.820;1.930;2023-09-07T06:56:40;100465.59;;;22.63;66.79
33625;BME280;19962;47.820;1.930;2023-09-07T06:59:06;100465.66;;;22.71;66.56
33625;BME280;19962;47.820;1.930;2023-09-07T07:01:32;100470.97;;;22.73;66.60
33625;BME280;19962;47.820;1.930;2023-09-07T07:03:58;100477.28;;;22.78;66.38
33625;BME280;19962;47.820;1.930;2023-09-07T07:06:25;100472.41;;;22.84;66.25
33625;BME280;19962;47.820;1.930;2023-09-07T07:08:52;100467.00;;;22.87;66.40
33625;BME280;19962;47.820;1.930;2023-09-07T07:11:18;100467.50;;;22.89;66.49
33625;BME280;19962;47.820;1.930;2023-09-07T07:13:44;100474.16;;;22.93;66.23
33625;BME280;19962;47.820;1.930;2023-09-07T07:16:11;100475.81;;;22.94;66.49
33625;BME280;19962;47.820;1.930;2023-09-07T07:18:37;100465.44;;;22.95;66.82
33625;BME280;19962;47.820;1.930;2023-09-07T07:21:05;100474.97;;;22.94;66.81
33625;BME280;19962;47.820;1.930;2023-09-07T07:23:31;100472.25;;;23.02;66.51
33625;BME280;19962;47.820;1.930;2023-09-07T07:25:57;100476.09;;;23.06;66.67
33625;BME280;19962;47.820;1.930;2023-09-07T07:28:23;100467.25;;;23.13;66.68
33625;BME280;19962;47.820;1.930;2023-09-07T07:30:50;100475.53;;;23.18;66.52
33625;BME280;19962;47.820;1.930;2023-09-07T07:33:18;100466.44;;;23.26;65.96
33625;BME280;19962;47.820;1.930;2023-09-07T07:35:44;100466.63;;;23.29;66.16
33625;BME280;19962;47.820;1.930;2023-09-07T07:38:11;100470.75;;;23.32;66.39
33625;BME280;19962;47.820;1.930;2023-09-07T07:40:39;100464.84;;;23.33;66.33
33625;BME280;19962;47.820;1.930;2023-09-07T07:43:05;100470.31;;;23.38;66.33
33625;BME280;19962;47.820;1.930;2023-09-07T07:45:32;100469.38;;;23.43;66.20
33625;BME280;19962;47.820;1.930;2023-09-07T07:48:02;100464.50;;;23.48;66.19
33625;BME280;19962;47.820;1.930;2023-09-07T07:50:31;100467.78;;;23.50;66.32
33625;BME280;19962;47.820;1.930;2023-09-07T07:52:57;100472.78;;;23.53;66.72
33625;BME280;19962;47.820;1.930;2023-09-07T07:55:23;100466.72;;;23.60;66.61
33625;BME280;19962;47.820;1.930;2023-09-07T07:57:49;100471.88;;;23.66;66.37
33625;BME280;19962;47.820;1.930;2023-09-07T08:00:16;100468.13;;;23.71;66.05
33625;BME280;19962;47.820;1.930;2023-09-07T08:02:42;100468.28;;;23.74;66.26
33625;BME280;19962;47.820;1.930;2023-09-07T08:05:09;100468.50;;;23.78;66.36
33625;BME280;19962;47.820;1.930;2023-09-07T08:07:36;100460.47;;;23.85;65.96
33625;BME280;19962;47.820;1.930;2023-09-07T08:10:02;100475.72;;;23.92;66.13
33625;BME280;19962;47.820;1.930;2023-09-07T08:12:29;100472.13;;;24.00;65.73
33625;BME280;19962;47.820;1.930;2023-09-07T08:14:55;100461.31;;;24.07;65.75
33625;BME280;19962;47.820;1.930;2023-09-07T08:17:22;100470.59;;;24.16;65.34
33625;BME280;19962;47.820;1.930;2023-09-07T08:19:49;100470.44;;;24.21;65.45
33625;BME280;19962;47.820;1.930;2023-09-07T08:22:17;100467.34;;;24.31;65.26
33625;BME280;19962;47.820;1.930;2023-09-07T08:24:43;100467.72;;;24.38;65.06
33625;BME280;19962;47.820;1.930;2023-09-07T08:27:10;100459.16;;;24.43;64.48
33625;BME280;19962;47.820;1.930;2023-09-07T08:29:37;100459.84;;;24.49;64.07
33625;BME280;19962;47.820;1.930;2023-09-07T08:32:03;100463.66;;;24.53;64.44
33625;BME280;19962;47.820;1.930;2023-09-07T08:34:30;100460.44;;;24.60;64.00
33625;BME280;19962;47.820;1.930;2023-09-07T08:36:57;100461.06;;;24.65;63.56
33625;BME280;19962;47.820;1.930;2023-09-07T08:39:25;100462.94;;;24.70;63.28
33625;BME280;19962;47.820;1.930;2023-09-07T08:41:51;100459.31;;;24.78;62.86
33625;BME280;19962;47.820;1.930;2023-09-07T08:44:18;100454.03;;;24.85;62.32
33625;BME280;19962;47.820;1.930;2023-09-07T08:46:45;100456.38;;;24.91;62.27
33625;BME280;19962;47.820;1.930;2023-09-07T08:49:13;100458.03;;;25.01;62.15
33625;BME280;19962;47.820;1.930;2023-09-07T08:51:39;100455.56;;;25.08;62.06
33625;BME280;19962;47.820;1.930;2023-09-07T08:54:07;100453.75;;;25.12;61.66
33625;BME280;19962;47.820;1.930;2023-09-07T08:56:34;100452.47;;;25.18;61.59
33625;BME280;19962;47.820;1.930;2023-09-07T08:59:00;100467.13;;;25.23;61.61
33625;BME280;19962;47.820;1.930;2023-09-07T09:01:26;100452.44;;;25.26;61.72
33625;BME280;19962;47.820;1.930;2023-09-07T09:03:54;100449.19;;;25.33;61.12
33625;BME280;19962;47.820;1.930;2023-09-07T09:06:21;100461.09;;;25.38;60.32
33625;BME280;19962;47.820;1.930;2023-09-07T09:08:53;100456.47;;;25.42;60.16
33625;BME280;19962;47.820;1.930;2023-09-07T09:11:20;100458.78;;;25.49;59.83
33625;BME280;19962;47.820;1.930;2023-09-07T09:13:48;100460.72;;;25.57;59.83
33625;BME280;19962;47.820;1.930;2023-09-07T09:16:15;100451.81;;;25.63;59.64
33625;BME280;19962;47.820;1.930;2023-09-07T09:18:52;100460.56;;;25.70;59.49
33625;BME280;19962;47.820;1.930;2023-09-07T09:21:26;100459.06;;;25.73;58.88
33625;BME280;19962;47.820;1.930;2023-09-07T09:23:54;100462.03;;;25.76;58.87
33625;BME280;19962;47.820;1.930;2023-09-07T09:26:23;100455.75;;;25.79;58.89
33625;BME280;19962;47.820;1.930;2023-09-07T09:28:50;100459.72;;;25.87;58.52
33625;BME280;19962;47.820;1.930;2023-09-07T09:31:19;100453.09;;;26.00;58.27
33625;BME280;19962;47.820;1.930;2023-09-07T09:33:49;100457.22;;;26.02;57.96
33625;BME280;19962;47.820;1.930;2023-09-07T09:36:17;100448.59;;;26.16;57.16
33625;BME280;19962;47.820;1.930;2023-09-07T09:38:48;100456.84;;;26.21;56.89
33625;BME280;19962;47.820;1.930;2023-09-07T09:41:17;100464.97;;;26.22;56.74
33625;BME280;19962;47.820;1.930;2023-09-07T09:43:43;100455.69;;;26.22;56.95
33625;BME280;19962;47.820;1.930;2023-09-07T09:46:12;100467.41;;;26.24;57.21
33625;BME280;19962;47.820;1.930;2023-09-07T09:48:41;100454.50;;;26.31;56.83
33625;BME280;19962;47.820;1.930;2023-09-07T09:51:08;100455.91;;;26.46;56.25
33625;BME280;19962;47.820;1.930;2023-09-07T09:53:34;100453.91;;;26.63;55.70
33625;BME280;19962;47.820;1.930;2023-09-07T09:56:00;100446.56;;;26.71;55.36
33625;BME280;19962;47.820;1.930;2023-09-07T09:58:26;100454.94;;;26.79;55.09
33625;BME280;19962;47.820;1.930;2023-09-07T10:00:55;100450.50;;;26.78;54.79
33625;BME280;19962;47.820;1.930;2023-09-07T10:03:44;100455.00;;;26.71;54.82
33625;BME280;19962;47.820;1.930;2023-09-07T10:06:24;100458.47;;;26.68;55.07
33625;BME280;19962;47.820;1.930;2023-09-07T10:09:04;100456.19;;;26.70;54.95
33625;BME280;19962;47.820;1.930;2023-09-07T10:11:34;100453.50;;;26.73;55.18
33625;BME280;19962;47.820;1.930;2023-09-07T10:14:01;100448.16;;;26.80;55.01
33625;BME280;19962;47.820;1.930;2023-09-07T10:16:53;100445.50;;;26.84;54.46
33625;BME280;19962;47.820;1.930;2023-09-07T10:19:25;100449.09;;;26.93;54.01
33625;BME280;19962;47.820;1.930;2023-09-07T10:21:54;100443.88;;;27.03;53.85
33625;BME280;19962;47.820;1.930;2023-09-07T10:24:29;100449.84;;;27.02;53.44
33625;BME280;19962;47.820;1.930;2023-09-07T10:27:04;100439.56;;;27.06;53.73
33625;BME280;19962;47.820;1.930;2023-09-07T10:29:51;100440.19;;;27.11;53.53
33625;BME280;19962;47.820;1.930;2023-09-07T10:32:20;100444.78;;;27.16;53.31
33625;BME280;19962;47.820;1.930;2023-09-07T10:34:46;100439.13;;;27.16;53.45
33625;BME280;19962;47.820;1.930;2023-09-07T10:37:13;100435.94;;;27.26;53.06
33625;BME280;19962;47.820;1.930;2023-09-07T10:39:41;100430.47;;;27.29;53.22
33625;BME280;19962;47.820;1.930;2023-09-07T10:42:26;100424.28;;;27.36;52.28
33625;BME280;19962;47.820;1.930;2023-09-07T10:44:52;100420.41;;;27.40;52.62
33625;BME280;19962;47.820;1.930;2023-09-07T10:47:18;100419.44;;;27.57;51.79
33625;BME280;19962;47.820;1.930;2023-09-07T10:49:45;100424.50;;;27.63;51.33
33625;BME280;19962;47.820;1.930;2023-09-07T10:52:11;100420.66;;;27.68;51.23
33625;BME280;19962;47.820;1.930;2023-09-07T10:54:38;100417.91;;;27.59;51.44
33625;BME280;19962;47.820;1.930;2023-09-07T10:57:11;100415.22;;;27.83;50.41
33625;BME280;19962;47.820;1.930;2023-09-07T10:59:46;100419.81;;;27.88;50.56
33625;BME280;19962;47.820;1.930;2023-09-07T11:02:12;100421.94;;;27.91;50.76
33625;BME280;19962;47.820;1.930;2023-09-07T11:04:39;100421.59;;;27.92;50.85
33625;BME280;19962;47.820;1.930;2023-09-07T11:07:05;100425.09;;;27.89;50.76
33625;BME280;19962;47.820;1.930;2023-09-07T11:09:31;100425.94;;;28.02;50.56
33625;BME280;19962;47.820;1.930;2023-09-07T11:12:04;100415.66;;;28.18;49.72
33625;BME280;19962;47.820;1.930;2023-09-07T11:14:31;100414.53;;;28.43;49.14
33625;BME280;19962;47.820;1.930;2023-09-07T11:16:57;100411.00;;;28.58;48.87
33625;BME280;19962;47.820;1.930;2023-09-07T11:19:23;100414.63;;;28.70;48.32
33625;BME280;19962;47.820;1.930;2023-09-07T11:21:49;100409.94;;;28.74;48.00
33625;BME280;19962;47.820;1.930;2023-09-07T11:24:19;100410.06;;;28.66;48.19
33625;BME280;19962;47.820;1.930;2023-09-07T11:26:47;100410.31;;;28.61;48.47
33625;BME280;19962;47.820;1.930;2023-09-07T11:29:17;100398.19;;;28.60;48.53
33625;BME280;19962;47.820;1.930;2023-09-07T11:31:47;100397.94;;;28.77;48.05
33625;BME280;19962;47.820;1.930;2023-09-07T11:34:14;100393.34;;;28.85;47.95
33625;BME280;19962;47.820;1.930;2023-09-07T11:36:41;100398.97;;;28.85;48.03
33625;BME280;19962;47.820;1.930;2023-09-07T11:39:08;100382.75;;;28.82;48.12
33625;BME280;19962;47.820;1.930;2023-09-07T11:41:41;100386.41;;;28.70;48.32
33625;BME280;19962;47.820;1.930;2023-09-07T11:44:08;100382.78;;;28.58;48.70
33625;BME280;19962;47.820;1.930;2023-09-07T11:46:34;100389.81;;;28.64;48.94
33625;BME280;19962;47.820;1.930;2023-09-07T11:49:00;100374.03;;;28.87;48.14
33625;BME280;19962;47.820;1.930;2023-09-07T11:51:27;100373.13;;;28.83;48.43
33625;BME280;19962;47.820;1.930;2023-09-07T11:53:53;100374.53;;;28.77;48.78
33625;BME280;19962;47.820;1.930;2023-09-07T11:56:19;100372.38;;;28.86;48.38
33625;BME280;19962;47.820;1.930;2023-09-07T11:58:45;100367.66;;;28.90;48.23
33625;BME280;19962;47.820;1.930;2023-09-07T12:01:11;100365.44;;;29.35;47.61
33625;BME280;19962;47.820;1.930;2023-09-07T12:03:37;100365.03;;;29.60;46.67
33625;BME280;19962;47.820;1.930;2023-09-07T12:06:03;100364.09;;;29.56;46.73
33625;BME280;19962;47.820;1.930;2023-09-07T12:08:29;100366.78;;;29.53;46.67
33625;BME280;19962;47.820;1.930;2023-09-07T12:10:55;100365.31;;;29.43;46.89
33625;BME280;19962;47.820;1.930;2023-09-07T12:13:21;100367.59;;;29.65;46.47
33625;BME280;19962;47.820;1.930;2023-09-07T12:15:48;100358.22;;;29.77;45.62
33625;BME280;19962;47.820;1.930;2023-09-07T12:18:14;100355.66;;;29.72;45.58
33625;BME280;19962;47.820;1.930;2023-09-07T12:20:40;100357.81;;;29.63;46.18
33625;BME280;19962;47.820;1.930;2023-09-07T12:23:06;100357.00;;;29.62;46.19
33625;BME280;19962;47.820;1.930;2023-09-07T12:25:32;100363.03;;;29.49;46.07
33625;BME280;19962;47.820;1.930;2023-09-07T12:27:58;100360.47;;;29.71;45.63
33625;BME280;19962;47.820;1.930;2023-09-07T12:30:24;100362.59;;;29.74;45.11
33625;BME280;19962;47.820;1.930;2023-09-07T12:32:51;100360.28;;;29.80;44.58
33625;BME280;19962;47.820;1.930;2023-09-07T12:35:17;100364.50;;;29.70;45.00
33625;BME280;19962;47.820;1.930;2023-09-07T12:37:44;100357.09;;;29.66;45.31
33625;BME280;19962;47.820;1.930;2023-09-07T12:40:11;100352.25;;;29.66;44.83
33625;BME280;19962;47.820;1.930;2023-09-07T12:42:45;100352.72;;;29.68;44.80
33625;BME280;19962;47.820;1.930;2023-09-07T12:45:12;100349.88;;;29.68;44.90
33625;BME280;19962;47.820;1.930;2023-09-07T12:47:40;100346.81;;;29.89;44.89
33625;BME280;19962;47.820;1.930;2023-09-07T12:50:06;100339.44;;;29.84;44.51
33625;BME280;19962;47.820;1.930;2023-09-07T12:52:34;100343.81;;;29.82;44.67